createdAt,value
2018-02-25T00:00:19.469Z,-1.99
2018-02-25T00:01:20.066Z,-1.99
2018-02-25T00:02:20.676Z,-1.99
2018-02-25T00:03:21.276Z,-1.79
2018-02-25T00:04:21.891Z,-1.93
2018-02-25T00:05:22.480Z,-1.94
2018-02-25T00:06:23.134Z,-1.88
2018-02-25T00:07:23.734Z,-1.91
2018-02-25T00:08:24.329Z,-1.82
2018-02-25T00:09:24.917Z,-1.99
2018-02-25T00:10:25.503Z,-1.96
2018-02-25T00:11:26.160Z,-1.91
2018-02-25T00:12:26.749Z,-1.91
2018-02-25T00:13:27.352Z,-1.94
2018-02-25T00:14:27.946Z,-1.97
2018-02-25T00:15:28.530Z,-1.91
2018-02-25T00:16:29.125Z,-2.00
2018-02-25T00:17:29.719Z,-1.97
2018-02-25T00:18:30.307Z,-1.97
2018-02-25T00:19:30.891Z,-2.12
2018-02-25T00:20:31.481Z,-2.01
2018-02-25T00:21:32.077Z,-1.91
2018-02-25T00:22:32.678Z,-2.00
2018-02-25T00:23:33.269Z,-1.97
2018-02-25T00:24:33.871Z,-2.07
2018-02-25T00:25:34.474Z,-1.97
2018-02-25T00:26:35.077Z,-1.99
2018-02-25T00:27:35.686Z,-2.07
2018-02-25T00:28:36.296Z,-1.99
2018-02-25T00:29:36.899Z,-2.01
2018-02-25T00:30:37.493Z,-2.07
2018-02-25T00:31:38.090Z,-2.12
2018-02-25T00:32:38.688Z,-2.19
2018-02-25T00:33:39.281Z,-2.21
2018-02-25T00:34:39.882Z,-2.06
2018-02-25T00:35:40.460Z,-2.06
2018-02-25T00:36:41.047Z,-2.04
2018-02-25T00:37:41.663Z,-2.06
2018-02-25T00:38:42.232Z,-2.06
2018-02-25T00:39:42.846Z,-2.15
2018-02-25T00:40:43.422Z,-2.07
2018-02-25T00:41:44.024Z,-2.17
2018-02-25T00:42:44.638Z,-2.12
2018-02-25T00:43:45.223Z,-2.24
2018-02-25T00:44:45.818Z,-2.12
2018-02-25T00:45:46.408Z,-2.12
2018-02-25T00:46:47.019Z,-2.11
2018-02-25T00:47:47.618Z,-2.09
2018-02-25T00:48:48.209Z,-2.11
2018-02-25T00:49:48.809Z,-2.14
2018-02-25T00:50:49.409Z,-2.07
2018-02-25T00:51:50.002Z,-2.11
2018-02-25T00:52:50.601Z,-2.14
2018-02-25T00:53:51.194Z,-2.09
2018-02-25T00:54:51.782Z,-2.06
2018-02-25T00:55:52.370Z,-2.12
2018-02-25T00:56:52.965Z,-2.17
2018-02-25T00:57:53.553Z,-2.21
2018-02-25T00:58:54.145Z,-2.25
2018-02-25T00:59:54.736Z,-2.22
2018-02-25T01:00:55.324Z,-2.30
2018-02-25T01:01:55.937Z,-2.29
2018-02-25T01:02:56.537Z,-2.30
2018-02-25T01:03:57.132Z,-2.38
2018-02-25T01:04:57.716Z,-2.43
2018-02-25T01:05:58.324Z,-2.46
2018-02-25T01:06:58.930Z,-2.51
2018-02-25T01:07:59.527Z,-2.46
2018-02-25T01:09:00.128Z,-2.58
2018-02-25T01:10:00.712Z,-2.57
2018-02-25T01:11:01.307Z,-2.58
2018-02-25T01:12:01.909Z,-2.64
2018-02-25T01:13:02.496Z,-2.58
2018-02-25T01:14:03.085Z,-2.62
2018-02-25T01:15:03.699Z,-2.58
2018-02-25T01:16:04.282Z,-2.66
2018-02-25T01:17:04.864Z,-2.58
2018-02-25T01:18:05.476Z,-2.59
2018-02-25T01:19:06.036Z,-2.55
2018-02-25T01:20:06.645Z,-2.54
2018-02-25T01:21:07.245Z,-2.59
2018-02-25T01:22:07.851Z,-2.57
2018-02-25T01:23:08.455Z,-2.54
2018-02-25T01:24:09.053Z,-2.55
2018-02-25T01:25:09.656Z,-2.61
2018-02-25T01:26:10.263Z,-2.59
2018-02-25T01:27:10.851Z,-2.62
2018-02-25T01:28:11.441Z,-2.67
2018-02-25T01:29:12.042Z,-2.66
2018-02-25T01:30:12.651Z,-2.66
2018-02-25T01:31:13.232Z,-2.64
2018-02-25T01:32:13.826Z,-2.62
2018-02-25T01:33:14.429Z,-2.72
2018-02-25T01:34:15.021Z,-2.66
2018-02-25T01:35:15.606Z,-2.66
2018-02-25T01:36:16.216Z,-2.66
2018-02-25T01:37:16.791Z,-2.70
2018-02-25T01:38:17.395Z,-2.75
2018-02-25T01:39:18.003Z,-2.70
2018-02-25T01:40:18.603Z,-2.67
2018-02-25T01:41:19.204Z,-2.70
2018-02-25T01:42:19.791Z,-2.75
2018-02-25T01:43:20.379Z,-2.76
2018-02-25T01:44:20.972Z,-2.76
2018-02-25T01:45:21.571Z,-2.83
2018-02-25T01:46:22.162Z,-2.79
2018-02-25T01:47:22.751Z,-2.67
2018-02-25T01:48:23.346Z,-2.73
2018-02-25T01:49:23.937Z,-2.75
2018-02-25T01:50:24.521Z,-2.79
2018-02-25T01:51:25.114Z,-2.88
2018-02-25T01:52:25.711Z,-2.85
2018-02-25T01:53:26.318Z,-2.80
2018-02-25T01:54:26.924Z,-2.85
2018-02-25T01:55:27.497Z,-2.85
2018-02-25T01:56:28.094Z,-2.83
2018-02-25T01:57:28.679Z,-2.79
2018-02-25T01:58:29.265Z,-2.83
2018-02-25T01:59:29.863Z,-2.85
2018-02-25T02:00:30.467Z,-2.98
2018-02-25T02:01:31.059Z,-2.93
2018-02-25T02:02:31.650Z,-2.88
2018-02-25T02:03:32.248Z,-2.91
2018-02-25T02:04:32.846Z,-2.90
2018-02-25T02:05:33.446Z,-2.95
2018-02-25T02:06:34.044Z,-2.90
2018-02-25T02:07:34.637Z,-3.05
2018-02-25T02:08:35.222Z,-2.90
2018-02-25T02:09:35.816Z,-2.90
2018-02-25T02:10:36.419Z,-2.97
2018-02-25T02:11:37.001Z,-2.94
2018-02-25T02:12:37.616Z,-3.05
2018-02-25T02:13:38.195Z,-3.09
2018-02-25T02:14:38.790Z,-3.06
2018-02-25T02:15:39.372Z,-3.11
2018-02-25T02:16:39.962Z,-3.09
2018-02-25T02:17:40.558Z,-3.12
2018-02-25T02:18:41.151Z,-3.12
2018-02-25T02:19:41.744Z,-3.01
2018-02-25T02:20:42.363Z,-3.12
2018-02-25T02:21:42.930Z,-3.11
2018-02-25T02:22:43.529Z,-3.09
2018-02-25T02:23:44.113Z,-3.11
2018-02-25T02:24:44.707Z,-3.12
2018-02-25T02:25:45.299Z,-3.06
2018-02-25T02:26:45.897Z,-3.16
2018-02-25T02:27:46.480Z,-3.14
2018-02-25T02:28:47.086Z,-3.18
2018-02-25T02:29:47.671Z,-3.32
2018-02-25T02:30:48.267Z,-3.21
2018-02-25T02:31:48.856Z,-3.29
2018-02-25T02:32:49.466Z,-3.26
2018-02-25T02:33:50.056Z,-3.29
2018-02-25T02:34:50.645Z,-3.34
2018-02-25T02:35:51.250Z,-3.29
2018-02-25T02:36:51.847Z,-3.30
2018-02-25T02:37:52.451Z,-3.30
2018-02-25T02:38:53.057Z,-3.29
2018-02-25T02:39:53.663Z,-3.27
2018-02-25T02:40:54.251Z,-3.30
2018-02-25T02:41:54.879Z,-3.27
2018-02-25T02:42:55.438Z,-3.30
2018-02-25T02:43:56.035Z,-3.30
2018-02-25T02:44:56.642Z,-3.29
2018-02-25T02:45:57.236Z,-3.32
2018-02-25T02:46:57.834Z,-3.26
2018-02-25T02:47:58.424Z,-3.36
2018-02-25T02:48:59.035Z,-3.37
2018-02-25T02:49:59.639Z,-3.39
2018-02-25T02:51:00.230Z,-3.37
2018-02-25T02:52:00.835Z,-3.41
2018-02-25T02:53:01.423Z,-3.39
2018-02-25T02:54:02.015Z,-3.36
2018-02-25T02:55:02.611Z,-3.36
2018-02-25T02:56:03.205Z,-3.36
2018-02-25T02:57:03.795Z,-3.30
2018-02-25T02:58:04.383Z,-3.27
2018-02-25T02:59:04.979Z,-3.26
2018-02-25T03:00:05.602Z,-3.33
2018-02-25T03:01:06.188Z,-3.37
2018-02-25T03:02:06.797Z,-3.39
2018-02-25T03:03:07.400Z,-3.41
2018-02-25T03:04:08.006Z,-3.34
2018-02-25T03:05:08.609Z,-3.37
2018-02-25T03:06:09.198Z,-3.45
2018-02-25T03:07:09.796Z,-3.44
2018-02-25T03:08:10.400Z,-3.42
2018-02-25T03:09:10.991Z,-3.52
2018-02-25T03:10:11.588Z,-3.51
2018-02-25T03:11:12.170Z,-3.51
2018-02-25T03:12:12.754Z,-3.55
2018-02-25T03:13:13.346Z,-3.54
2018-02-25T03:14:13.933Z,-3.52
2018-02-25T03:15:14.534Z,-3.54
2018-02-25T03:16:15.136Z,-3.51
2018-02-25T03:17:15.719Z,-3.52
2018-02-25T03:18:16.318Z,-3.51
2018-02-25T03:19:16.927Z,-3.42
2018-02-25T03:20:17.507Z,-3.44
2018-02-25T03:21:18.094Z,-3.45
2018-02-25T03:22:18.694Z,-3.54
2018-02-25T03:23:19.321Z,-3.50
2018-02-25T03:24:19.880Z,-3.50
2018-02-25T03:25:20.534Z,-3.57
2018-02-25T03:26:21.083Z,-3.54
2018-02-25T03:27:21.654Z,-3.58
2018-02-25T03:28:22.252Z,-3.58
2018-02-25T03:29:22.845Z,-3.57
2018-02-25T03:30:23.439Z,-3.62
2018-02-25T03:31:24.041Z,-3.58
2018-02-25T03:32:24.632Z,-3.55
2018-02-25T03:33:25.240Z,-3.58
2018-02-25T03:35:10.051Z,-3.61
2018-02-25T03:36:10.649Z,-3.65
2018-02-25T03:37:11.249Z,-3.66
2018-02-25T03:38:11.872Z,-3.71
2018-02-25T03:39:12.474Z,-3.81
2018-02-25T03:40:13.094Z,-3.77
2018-02-25T03:41:13.693Z,-3.77
2018-02-25T03:42:14.293Z,-3.69
2018-02-25T03:43:14.893Z,-3.84
2018-02-25T03:44:15.492Z,-3.71
2018-02-25T03:45:16.093Z,-3.80
2018-02-25T03:46:16.692Z,-3.77
2018-02-25T03:47:17.291Z,-3.77
2018-02-25T03:48:17.891Z,-3.80
2018-02-25T03:49:18.492Z,-3.82
2018-02-25T03:50:19.094Z,-3.82
2018-02-25T03:51:19.714Z,-3.92
2018-02-25T03:52:20.313Z,-3.88
2018-02-25T03:53:20.912Z,-3.85
2018-02-25T03:54:21.512Z,-3.87
2018-02-25T03:55:22.111Z,-3.90
2018-02-25T03:56:22.708Z,-3.94
2018-02-25T03:57:23.308Z,-3.91
2018-02-25T03:58:23.907Z,-3.92
2018-02-25T03:59:24.508Z,-3.90
2018-02-25T04:00:25.130Z,-4.02
2018-02-25T04:01:25.753Z,-4.02
2018-02-25T04:02:26.346Z,-4.02
2018-02-25T04:03:26.948Z,-3.94
2018-02-25T04:04:27.538Z,-4.06
2018-02-25T04:05:28.129Z,-4.03
2018-02-25T04:06:28.734Z,-4.02
2018-02-25T04:07:29.315Z,-4.06
2018-02-25T04:08:29.900Z,-4.05
2018-02-25T04:09:30.485Z,-3.94
2018-02-25T04:10:31.083Z,-4.06
2018-02-25T04:11:31.681Z,-4.08
2018-02-25T04:12:32.287Z,-3.95
2018-02-25T04:13:32.894Z,-4.09
2018-02-25T04:14:33.493Z,-4.02
2018-02-25T04:15:34.089Z,-4.12
2018-02-25T04:16:34.683Z,-4.05
2018-02-25T04:17:35.274Z,-4.08
2018-02-25T04:18:35.885Z,-4.15
2018-02-25T04:19:36.480Z,-4.06
2018-02-25T04:20:37.071Z,-4.13
2018-02-25T04:21:37.679Z,-4.15
2018-02-25T04:22:38.288Z,-4.19
2018-02-25T04:23:38.873Z,-4.15
2018-02-25T04:24:39.470Z,-4.12
2018-02-25T04:25:40.062Z,-4.23
2018-02-25T04:26:40.653Z,-4.15
2018-02-25T04:27:41.238Z,-4.19
2018-02-25T04:28:41.838Z,-4.21
2018-02-25T04:29:42.421Z,-4.15
2018-02-25T04:30:43.007Z,-4.12
2018-02-25T04:31:43.606Z,-4.19
2018-02-25T04:32:44.192Z,-4.09
2018-02-25T04:33:44.788Z,-4.12
2018-02-25T04:34:45.386Z,-4.19
2018-02-25T04:35:45.988Z,-4.17
2018-02-25T04:36:46.570Z,-4.21
2018-02-25T04:37:47.167Z,-4.20
2018-02-25T04:38:47.752Z,-4.35
2018-02-25T04:39:48.354Z,-4.23
2018-02-25T04:40:48.950Z,-4.21
2018-02-25T04:41:49.536Z,-4.31
2018-02-25T04:42:50.142Z,-4.26
2018-02-25T04:43:50.743Z,-4.31
2018-02-25T04:44:51.339Z,-4.37
2018-02-25T04:45:51.941Z,-4.48
2018-02-25T04:46:52.544Z,-4.37
2018-02-25T04:47:53.146Z,-4.44
2018-02-25T04:48:53.743Z,-4.44
2018-02-25T04:49:54.343Z,-4.41
2018-02-25T04:50:54.938Z,-4.42
2018-02-25T04:51:55.537Z,-4.44
2018-02-25T04:52:56.127Z,-4.44
2018-02-25T04:53:56.723Z,-4.42
2018-02-25T04:54:57.306Z,-4.47
2018-02-25T04:55:57.891Z,-4.55
2018-02-25T04:56:58.494Z,-4.47
2018-02-25T04:57:59.076Z,-4.44
2018-02-25T04:58:59.667Z,-4.45
2018-02-25T05:00:00.254Z,-4.37
2018-02-25T05:01:00.845Z,-4.35
2018-02-25T05:02:01.442Z,-4.35
2018-02-25T05:03:02.043Z,-4.45
2018-02-25T05:04:02.652Z,-4.41
2018-02-25T05:05:03.234Z,-4.45
2018-02-25T05:06:03.839Z,-4.42
2018-02-25T05:07:04.420Z,-4.42
2018-02-25T05:08:05.020Z,-4.41
2018-02-25T05:09:05.621Z,-4.47
2018-02-25T05:10:06.218Z,-4.44
2018-02-25T05:11:06.812Z,-4.44
2018-02-25T05:12:07.415Z,-4.42
2018-02-25T05:13:08.002Z,-4.49
2018-02-25T05:14:08.595Z,-4.42
2018-02-25T05:15:09.199Z,-4.42
2018-02-25T05:16:09.797Z,-4.39
2018-02-25T05:17:10.394Z,-4.52
2018-02-25T05:18:10.982Z,-4.56
2018-02-25T05:19:11.590Z,-4.56
2018-02-25T05:20:12.177Z,-4.62
2018-02-25T05:21:12.778Z,-4.51
2018-02-25T05:22:13.371Z,-4.58
2018-02-25T05:23:13.973Z,-4.60
2018-02-25T05:24:14.565Z,-4.59
2018-02-25T05:25:15.168Z,-4.58
2018-02-25T05:26:15.754Z,-4.62
2018-02-25T05:27:16.344Z,-4.56
2018-02-25T05:28:16.929Z,-4.58
2018-02-25T05:29:17.530Z,-4.66
2018-02-25T05:30:18.119Z,-4.58
2018-02-25T05:31:18.716Z,-4.69
2018-02-25T05:32:19.322Z,-4.69
2018-02-25T05:33:19.913Z,-4.63
2018-02-25T05:34:20.516Z,-4.74
2018-02-25T05:35:21.111Z,-4.70
2018-02-25T05:36:21.700Z,-4.65
2018-02-25T05:37:22.304Z,-4.66
2018-02-25T05:38:22.888Z,-4.74
2018-02-25T05:39:23.482Z,-4.68
2018-02-25T05:40:24.076Z,-4.70
2018-02-25T05:41:24.668Z,-4.68
2018-02-25T05:42:25.265Z,-4.73
2018-02-25T05:43:25.866Z,-4.70
2018-02-25T05:44:26.463Z,-4.74
2018-02-25T05:45:27.056Z,-4.70
2018-02-25T05:46:27.648Z,-4.63
2018-02-25T05:47:28.251Z,-4.81
2018-02-25T05:48:28.844Z,-4.76
2018-02-25T05:49:29.438Z,-4.73
2018-02-25T05:50:30.029Z,-4.65
2018-02-25T05:51:30.618Z,-4.68
2018-02-25T05:52:31.222Z,-4.69
2018-02-25T05:53:31.819Z,-4.76
2018-02-25T05:54:32.416Z,-4.76
2018-02-25T05:55:33.015Z,-4.73
2018-02-25T05:56:33.595Z,-4.68
2018-02-25T05:57:34.189Z,-4.63
2018-02-25T05:58:34.777Z,-4.66
2018-02-25T05:59:35.377Z,-4.69
2018-02-25T06:00:35.969Z,-4.83
2018-02-25T06:01:36.555Z,-4.78
2018-02-25T06:02:37.142Z,-4.81
2018-02-25T06:03:37.746Z,-4.81
2018-02-25T06:04:38.357Z,-4.80
2018-02-25T06:05:38.961Z,-4.76
2018-02-25T06:06:39.569Z,-4.74
2018-02-25T06:07:40.165Z,-4.78
2018-02-25T06:08:40.750Z,-4.80
2018-02-25T06:09:41.357Z,-4.88
2018-02-25T06:10:41.934Z,-4.88
2018-02-25T06:11:42.525Z,-4.88
2018-02-25T06:12:43.119Z,-4.90
2018-02-25T06:13:43.708Z,-4.88
2018-02-25T06:14:44.306Z,-4.86
2018-02-25T06:15:44.915Z,-4.92
2018-02-25T06:16:45.516Z,-4.90
2018-02-25T06:17:46.108Z,-4.88
2018-02-25T06:18:46.703Z,-4.88
2018-02-25T06:19:47.296Z,-4.78
2018-02-25T06:20:47.888Z,-4.87
2018-02-25T06:21:48.491Z,-4.92
2018-02-25T06:22:49.093Z,-4.94
2018-02-25T06:23:49.695Z,-4.84
2018-02-25T06:24:50.292Z,-4.87
2018-02-25T06:25:50.881Z,-4.90
2018-02-25T06:26:51.470Z,-4.88
2018-02-25T06:27:52.074Z,-4.92
2018-02-25T06:28:52.679Z,-4.88
2018-02-25T06:29:53.274Z,-4.95
2018-02-25T06:30:53.870Z,-4.90
2018-02-25T06:31:54.479Z,-4.87
2018-02-25T06:32:55.074Z,-4.94
2018-02-25T06:33:55.681Z,-4.84
2018-02-25T06:34:56.273Z,-4.92
2018-02-25T06:35:56.866Z,-4.92
2018-02-25T06:36:57.473Z,-4.86
2018-02-25T06:37:58.065Z,-4.84
2018-02-25T06:38:58.659Z,-4.92
2018-02-25T06:39:59.259Z,-4.87
2018-02-25T06:40:59.864Z,-4.88
2018-02-25T06:42:00.456Z,-4.83
2018-02-25T06:43:01.047Z,-4.74
2018-02-25T06:44:01.643Z,-4.74
2018-02-25T06:45:02.254Z,-4.77
2018-02-25T06:46:02.889Z,-4.81
2018-02-25T06:47:03.473Z,-4.77
2018-02-25T06:48:04.073Z,-4.74
2018-02-25T06:49:04.664Z,-4.77
2018-02-25T06:50:05.271Z,-4.78
2018-02-25T06:51:05.861Z,-4.81
2018-02-25T06:52:06.468Z,-4.73
2018-02-25T06:53:07.072Z,-4.73
2018-02-25T06:54:07.675Z,-4.69
2018-02-25T06:55:08.266Z,-4.66
2018-02-25T06:56:08.864Z,-4.70
2018-02-25T06:57:09.466Z,-4.69
2018-02-25T06:58:10.067Z,-4.68
2018-02-25T06:59:10.679Z,-4.68
2018-02-25T07:00:11.288Z,-4.66
2018-02-25T07:01:11.896Z,-4.69
2018-02-25T07:02:12.498Z,-4.56
2018-02-25T07:03:13.096Z,-4.60
2018-02-25T07:04:13.696Z,-4.59
2018-02-25T07:05:14.281Z,-4.51
2018-02-25T07:06:14.872Z,-4.51
2018-02-25T07:07:15.470Z,-4.55
2018-02-25T07:08:16.083Z,-4.45
2018-02-25T07:09:16.684Z,-4.45
2018-02-25T07:10:17.295Z,-4.44
2018-02-25T07:11:17.899Z,-4.24
2018-02-25T07:12:18.498Z,-4.12
2018-02-25T07:13:19.104Z,-4.02
2018-02-25T07:14:19.701Z,-3.95
2018-02-25T07:15:20.293Z,-3.95
2018-02-25T07:16:20.887Z,-3.92
2018-02-25T07:17:21.487Z,-3.66
2018-02-25T07:18:22.092Z,-3.52
2018-02-25T07:19:22.695Z,-3.50
2018-02-25T07:20:23.308Z,-3.30
2018-02-25T07:21:23.914Z,-3.05
2018-02-25T07:22:24.522Z,-2.88
2018-02-25T07:23:25.125Z,-2.80
2018-02-25T07:24:25.723Z,-2.95
2018-02-25T07:25:26.327Z,-2.76
2018-02-25T07:26:26.921Z,-2.70
2018-02-25T07:27:27.524Z,-2.73
2018-02-25T07:28:28.130Z,-2.54
2018-02-25T07:29:28.737Z,-2.36
2018-02-25T07:30:29.360Z,-2.28
2018-02-25T07:31:29.964Z,-2.21
2018-02-25T07:32:30.558Z,-2.04
2018-02-25T07:33:31.166Z,-1.99
2018-02-25T07:34:31.773Z,-1.94
2018-02-25T07:35:32.382Z,-1.82
2018-02-25T07:36:32.989Z,-1.62
2018-02-25T07:37:33.594Z,-1.39
2018-02-25T07:38:34.192Z,-1.36
2018-02-25T07:39:34.796Z,-1.31
2018-02-25T07:40:35.394Z,-1.22
2018-02-25T07:41:35.998Z,-1.26
2018-02-25T07:42:36.610Z,-1.13
2018-02-25T07:43:37.221Z,-1.10
2018-02-25T07:44:37.844Z,-0.98
2018-02-25T07:45:38.451Z,-0.79
2018-02-25T07:46:39.066Z,-0.85
2018-02-25T07:47:39.668Z,-0.67
2018-02-25T07:48:40.270Z,-0.63
2018-02-25T07:49:40.867Z,-0.42
2018-02-25T07:50:41.475Z,-0.60
2018-02-25T07:51:42.075Z,-0.50
2018-02-25T07:52:42.690Z,-0.55
2018-02-25T07:53:43.293Z,-0.42
2018-02-25T07:54:43.909Z,-0.37
2018-02-25T07:55:44.510Z,-0.49
2018-02-25T07:56:45.119Z,-0.50
2018-02-25T07:57:45.743Z,-0.42
2018-02-25T07:58:46.358Z,-0.25
2018-02-25T07:59:46.961Z,-0.35
2018-02-25T08:00:47.581Z,-0.52
2018-02-25T08:01:48.198Z,-0.27
2018-02-25T08:02:48.799Z,0.09
2018-02-25T08:03:49.403Z,0.26
2018-02-25T08:04:50.000Z,0.44
2018-02-25T08:05:50.612Z,0.77
2018-02-25T08:06:51.222Z,0.81
2018-02-25T08:07:51.834Z,0.50
2018-02-25T08:08:52.443Z,0.84
2018-02-25T08:09:53.057Z,0.72
2018-02-25T08:10:53.681Z,0.30
2018-02-25T08:11:54.282Z,0.27
2018-02-25T08:12:54.881Z,0.51
2018-02-25T08:13:55.485Z,0.63
2018-02-25T08:14:56.112Z,0.64
2018-02-25T08:15:56.716Z,0.63
2018-02-25T08:16:57.315Z,0.82
2018-02-25T08:17:57.928Z,0.77
2018-02-25T08:18:58.536Z,0.43
2018-02-25T08:19:59.154Z,0.44
2018-02-25T08:20:59.765Z,0.60
2018-02-25T08:22:00.380Z,0.60
2018-02-25T08:23:01.001Z,0.30
2018-02-25T08:24:01.602Z,0.29
2018-02-25T08:25:02.210Z,0.85
2018-02-25T08:26:02.809Z,1.05
2018-02-25T08:27:03.430Z,0.99
2018-02-25T08:28:04.030Z,1.02
2018-02-25T08:29:04.633Z,1.05
2018-02-25T08:30:05.258Z,0.60
2018-02-25T08:31:05.872Z,0.66
2018-02-25T08:32:06.484Z,0.57
2018-02-25T08:33:07.109Z,0.38
2018-02-25T08:34:07.727Z,0.30
2018-02-25T08:35:08.348Z,0.15
2018-02-25T08:36:08.962Z,-0.09
2018-02-25T08:37:09.560Z,-0.31
2018-02-25T08:38:10.166Z,-0.42
2018-02-25T08:39:10.776Z,-0.52
2018-02-25T08:40:11.382Z,-0.61
2018-02-25T08:41:11.985Z,-0.66
2018-02-25T08:42:12.588Z,-0.58
2018-02-25T08:43:13.199Z,-0.73
2018-02-25T08:44:14.037Z,-1.07
2018-02-25T08:45:14.651Z,-1.04
2018-02-25T08:46:15.274Z,-1.29
2018-02-25T08:47:15.885Z,-1.47
2018-02-25T08:48:16.498Z,-1.44
2018-02-25T08:49:17.088Z,-1.34
2018-02-25T08:50:17.692Z,-1.50
2018-02-25T08:51:18.295Z,-1.54
2018-02-25T08:52:18.902Z,-1.50
2018-02-25T08:53:19.500Z,-1.46
2018-02-25T08:54:20.109Z,-1.54
2018-02-25T08:55:20.701Z,-1.54
2018-02-25T08:56:21.304Z,-1.52
2018-02-25T08:57:21.910Z,-1.54
2018-02-25T08:58:22.515Z,-1.70
2018-02-25T08:59:23.114Z,-1.83
2018-02-25T09:00:23.710Z,-1.79
2018-02-25T09:01:24.328Z,-1.70
2018-02-25T09:02:24.921Z,-1.67
2018-02-25T09:03:25.525Z,-1.49
2018-02-25T09:04:26.136Z,-1.58
2018-02-25T09:05:26.740Z,-1.57
2018-02-25T09:06:27.347Z,-1.52
2018-02-25T09:07:27.948Z,-1.54
2018-02-25T09:08:28.544Z,-1.34
2018-02-25T09:09:29.152Z,-1.21
2018-02-25T09:10:29.770Z,-1.11
2018-02-25T09:11:30.387Z,-1.18
2018-02-25T09:12:31.000Z,-1.08
2018-02-25T09:13:31.600Z,-1.29
2018-02-25T09:14:32.207Z,-1.39
2018-02-25T09:15:32.814Z,-1.32
2018-02-25T09:16:33.434Z,-1.28
2018-02-25T09:17:34.081Z,-1.18
2018-02-25T09:18:34.666Z,-1.10
2018-02-25T09:19:35.270Z,-1.06
2018-02-25T09:20:35.878Z,-0.97
2018-02-25T09:21:36.488Z,-1.06
2018-02-25T09:22:37.083Z,-0.93
2018-02-25T09:23:37.689Z,-0.79
2018-02-25T09:24:38.303Z,-0.70
2018-02-25T09:25:38.907Z,-0.89
2018-02-25T09:26:39.505Z,-0.81
2018-02-25T09:27:40.102Z,-0.58
2018-02-25T09:28:40.705Z,-0.56
2018-02-25T09:29:41.316Z,-0.43
2018-02-25T09:30:41.920Z,-0.32
2018-02-25T09:31:42.749Z,-0.30
2018-02-25T09:32:43.348Z,-0.09
2018-02-25T09:33:43.956Z,0.30
2018-02-25T09:34:44.568Z,0.47
2018-02-25T09:35:45.181Z,0.66
2018-02-25T09:36:45.848Z,0.75
2018-02-25T09:37:46.460Z,0.78
2018-02-25T09:38:47.073Z,0.99
2018-02-25T09:39:47.677Z,1.00
2018-02-25T09:40:48.285Z,0.87
2018-02-25T09:41:48.898Z,0.99
2018-02-25T09:42:49.507Z,0.80
2018-02-25T09:43:50.118Z,0.88
2018-02-25T09:44:50.719Z,0.78
2018-02-25T09:45:51.324Z,1.02
2018-02-25T09:46:51.932Z,1.48
2018-02-25T09:47:52.543Z,1.52
2018-02-25T09:48:53.140Z,1.44
2018-02-25T09:49:53.750Z,1.53
2018-02-25T09:50:54.364Z,1.41
2018-02-25T09:51:54.967Z,1.52
2018-02-25T09:52:55.585Z,1.64
2018-02-25T09:53:56.195Z,1.68
2018-02-25T09:54:56.808Z,1.74
2018-02-25T09:55:57.417Z,1.45
2018-02-25T09:56:58.015Z,1.36
2018-02-25T09:57:58.620Z,1.71
2018-02-25T09:58:59.244Z,1.52
2018-02-25T09:59:59.849Z,1.62
2018-02-25T10:01:00.478Z,1.99
2018-02-25T10:02:01.089Z,2.01
2018-02-25T10:03:01.702Z,1.78
2018-02-25T10:04:02.318Z,2.01
2018-02-25T10:05:02.935Z,1.97
2018-02-25T10:06:03.543Z,1.93
2018-02-25T10:07:04.155Z,1.90
2018-02-25T10:08:04.775Z,1.90
2018-02-25T10:09:05.382Z,2.08
2018-02-25T10:10:06.000Z,2.32
2018-02-25T10:11:06.618Z,2.17
2018-02-25T10:12:07.236Z,2.28
2018-02-25T10:13:07.845Z,2.73
2018-02-25T10:14:08.461Z,2.46
2018-02-25T10:15:09.078Z,2.53
2018-02-25T10:16:09.682Z,2.72
2018-02-25T10:17:10.293Z,2.46
2018-02-25T10:18:10.900Z,2.40
2018-02-25T10:19:11.521Z,2.65
2018-02-25T10:20:12.123Z,2.60
2018-02-25T10:21:12.730Z,2.82
2018-02-25T10:22:13.336Z,2.94
2018-02-25T10:23:13.953Z,2.79
2018-02-25T10:24:14.563Z,3.01
2018-02-25T10:25:15.182Z,3.26
2018-02-25T10:26:15.798Z,3.07
2018-02-25T10:27:16.402Z,3.00
2018-02-25T10:28:17.026Z,2.91
2018-02-25T10:29:17.633Z,2.79
2018-02-25T10:30:18.250Z,2.94
2018-02-25T10:31:18.863Z,2.97
2018-02-25T10:32:19.474Z,3.08
2018-02-25T10:33:20.095Z,3.12
2018-02-25T10:34:20.720Z,2.96
2018-02-25T10:35:21.318Z,3.00
2018-02-25T10:36:21.933Z,2.89
2018-02-25T10:37:22.553Z,2.69
2018-02-25T10:38:23.181Z,2.75
2018-02-25T10:39:23.780Z,2.97
2018-02-25T10:40:24.391Z,3.12
2018-02-25T10:41:25.012Z,3.23
2018-02-25T10:42:25.628Z,3.12
2018-02-25T10:43:26.228Z,3.32
2018-02-25T10:44:26.840Z,3.39
2018-02-25T10:45:27.461Z,3.33
2018-02-25T10:46:28.053Z,2.83
2018-02-25T10:47:28.673Z,2.82
2018-02-25T10:48:29.272Z,2.91
2018-02-25T10:49:29.890Z,3.12
2018-02-25T10:50:30.506Z,3.62
2018-02-25T10:51:31.118Z,4.02
2018-02-25T10:52:31.719Z,4.23
2018-02-25T10:53:32.338Z,4.18
2018-02-25T10:54:32.955Z,4.10
2018-02-25T10:55:33.569Z,4.13
2018-02-25T10:56:34.176Z,3.93
2018-02-25T10:57:34.781Z,3.67
2018-02-25T10:58:35.385Z,3.73
2018-02-25T10:59:36.002Z,4.05
2018-02-25T11:00:36.617Z,3.99
2018-02-25T11:01:37.219Z,3.87
2018-02-25T11:02:37.838Z,4.13
2018-02-25T11:03:38.450Z,4.35
2018-02-25T11:04:39.062Z,4.41
2018-02-25T11:05:39.677Z,4.35
2018-02-25T11:06:40.286Z,3.81
2018-02-25T11:07:40.895Z,4.02
2018-02-25T11:08:41.501Z,4.02
2018-02-25T11:09:42.127Z,4.26
2018-02-25T11:10:42.749Z,4.46
2018-02-25T11:11:43.345Z,4.56
2018-02-25T11:12:43.945Z,4.54
2018-02-25T11:13:44.549Z,4.54
2018-02-25T11:14:45.150Z,4.62
2018-02-25T11:15:45.762Z,4.52
2018-02-25T11:16:46.390Z,4.27
2018-02-25T11:17:46.981Z,4.17
2018-02-25T11:18:47.589Z,4.14
2018-02-25T11:19:48.189Z,4.14
2018-02-25T11:20:48.835Z,4.10
2018-02-25T11:21:49.415Z,4.28
2018-02-25T11:22:50.030Z,4.39
2018-02-25T11:23:50.631Z,4.44
2018-02-25T11:24:51.247Z,4.56
2018-02-25T11:25:51.853Z,4.31
2018-02-25T11:26:52.464Z,4.20
2018-02-25T11:27:53.072Z,4.62
2018-02-25T11:28:53.687Z,4.62
2018-02-25T11:29:54.297Z,4.52
2018-02-25T11:30:54.920Z,4.68
2018-02-25T11:31:55.536Z,4.62
2018-02-25T11:32:56.154Z,4.60
2018-02-25T11:33:56.765Z,4.46
2018-02-25T11:34:57.371Z,4.39
2018-02-25T11:35:57.984Z,4.18
2018-02-25T11:36:58.592Z,4.50
2018-02-25T11:37:59.193Z,4.64
2018-02-25T11:38:59.801Z,4.62
2018-02-25T11:40:00.404Z,4.45
2018-02-25T11:41:01.011Z,4.90
2018-02-25T11:42:01.622Z,4.91
2018-02-25T11:43:02.219Z,5.00
2018-02-25T11:44:02.839Z,5.39
2018-02-25T11:45:03.435Z,5.61
2018-02-25T11:46:04.045Z,5.42
2018-02-25T11:47:04.655Z,5.50
2018-02-25T11:48:05.264Z,5.24
2018-02-25T11:49:05.877Z,5.30
2018-02-25T11:50:06.499Z,5.29
2018-02-25T11:51:07.162Z,5.04
2018-02-25T11:52:07.736Z,5.47
2018-02-25T11:53:08.350Z,5.34
2018-02-25T11:54:08.953Z,5.66
2018-02-25T11:55:09.563Z,5.78
2018-02-25T11:56:10.167Z,5.76
2018-02-25T11:57:10.908Z,5.79
2018-02-25T11:58:11.529Z,6.15
2018-02-25T11:59:12.131Z,6.15
2018-02-25T12:00:12.735Z,5.91
2018-02-25T12:01:13.342Z,5.87
2018-02-25T12:02:13.954Z,5.73
2018-02-25T12:03:14.563Z,5.86
2018-02-25T12:04:15.163Z,6.05
2018-02-25T12:05:15.775Z,5.79
2018-02-25T12:06:16.382Z,5.57
2018-02-25T12:07:16.991Z,5.70
2018-02-25T12:08:17.600Z,5.48
2018-02-25T12:09:18.217Z,5.40
2018-02-25T12:10:18.840Z,5.30
2018-02-25T12:11:19.463Z,5.50
2018-02-25T12:12:20.061Z,5.70
2018-02-25T12:13:20.663Z,5.63
2018-02-25T12:14:21.276Z,5.50
2018-02-25T12:15:21.889Z,5.45
2018-02-25T12:16:22.503Z,5.27
2018-02-25T12:17:23.121Z,5.12
2018-02-25T12:18:23.736Z,5.18
2018-02-25T12:19:24.345Z,5.39
2018-02-25T12:20:24.958Z,5.32
2018-02-25T12:21:25.571Z,5.54
2018-02-25T12:22:26.183Z,5.83
2018-02-25T12:23:26.794Z,5.42
2018-02-25T12:24:27.405Z,5.44
2018-02-25T12:25:28.018Z,5.37
2018-02-25T12:26:28.635Z,5.65
2018-02-25T12:27:29.240Z,5.83
2018-02-25T12:28:29.855Z,6.02
2018-02-25T12:29:30.454Z,5.76
2018-02-25T12:30:31.066Z,6.05
2018-02-25T12:31:31.676Z,6.11
2018-02-25T12:32:32.294Z,5.88
2018-02-25T12:33:32.890Z,5.90
2018-02-25T12:34:33.498Z,6.27
2018-02-25T12:35:34.095Z,6.22
2018-02-25T12:36:34.704Z,6.24
2018-02-25T12:37:35.321Z,6.43
2018-02-25T12:38:35.944Z,6.42
2018-02-25T12:39:36.559Z,6.09
2018-02-25T12:40:37.174Z,5.93
2018-02-25T12:41:37.790Z,5.83
2018-02-25T12:42:38.390Z,5.81
2018-02-25T12:43:39.004Z,5.54
2018-02-25T12:44:39.623Z,5.32
2018-02-25T12:45:40.224Z,5.48
2018-02-25T12:46:40.827Z,5.11
2018-02-25T12:47:41.452Z,5.14
2018-02-25T12:48:42.071Z,5.52
2018-02-25T12:49:42.674Z,5.45
2018-02-25T12:50:43.302Z,5.36
2018-02-25T12:51:43.906Z,5.69
2018-02-25T12:52:44.513Z,5.78
2018-02-25T12:53:45.123Z,5.75
2018-02-25T12:54:45.743Z,5.81
2018-02-25T12:55:46.359Z,5.94
2018-02-25T12:56:46.965Z,5.76
2018-02-25T12:57:47.579Z,5.96
2018-02-25T12:58:48.191Z,6.11
2018-02-25T12:59:48.806Z,6.39
2018-02-25T13:00:49.419Z,6.48
2018-02-25T13:01:50.037Z,6.52
2018-02-25T13:02:50.642Z,6.66
2018-02-25T13:03:51.242Z,6.66
2018-02-25T13:04:51.849Z,6.19
2018-02-25T13:05:52.460Z,6.01
2018-02-25T13:06:53.069Z,5.87
2018-02-25T13:07:53.684Z,5.83
2018-02-25T13:08:54.298Z,5.96